sensor_id;sensor_type;location;lat;lon;timestamp;pressure;altitude;pressure_sealevel;temperature;humidity
46690;BME280;32423;45.398;10.874;2022-11-12T00:00:36;102449.38;;;11.71;66.91
46690;BME280;32423;45.398;10.874;2022-11-12T00:03:40;102446.69;;;11.66;66.42
46690;BME280;32423;45.398;10.874;2022-11-12T00:06:43;102444.50;;;11.68;65.91
46690;BME280;32423;45.398;10.874;2022-11-12T00:09:46;102448.31;;;11.72;65.03
46690;BME280;32423;45.398;10.874;2022-11-12T00:12:50;102459.97;;;11.88;64.56
46690;BME280;32423;45.398;10.874;2022-11-12T00:15:53;102453.16;;;11.85;63.89
46690;BME280;32423;45.398;10.874;2022-11-12T00:18:56;102457.56;;;11.76;63.99
46690;BME280;32423;45.398;10.874;2022-11-12T00:22:00;102451.06;;;11.67;63.78
46690;BME280;32423;45.398;10.874;2022-11-12T00:25:04;102451.19;;;11.32;65.43
46690;BME280;32423;45.398;10.874;2022-11-12T00:28:08;102449.84;;;11.19;65.29
46690;BME280;32423;45.398;10.874;2022-11-12T00:31:12;102439.75;;;11.25;66.13
46690;BME280;32423;45.398;10.874;2022-11-12T00:34:16;102441.38;;;11.36;67.02
46690;BME280;32423;45.398;10.874;2022-11-12T00:37:20;102439.44;;;11.46;69.05
46690;BME280;32423;45.398;10.874;2022-11-12T00:40:25;102435.38;;;11.29;65.86
46690;BME280;32423;45.398;10.874;2022-11-12T00:43:29;102432.13;;;11.32;66.48
46690;BME280;32423;45.398;10.874;2022-11-12T00:46:32;102428.59;;;11.26;66.21
46690;BME280;32423;45.398;10.874;2022-11-12T00:49:35;102410.38;;;11.22;65.98
46690;BME280;32423;45.398;10.874;2022-11-12T00:52:38;102419.09;;;11.13;65.89
46690;BME280;32423;45.398;10.874;2022-11-12T00:55:42;102416.09;;;11.20;66.09
46690;BME280;32423;45.398;10.874;2022-11-12T00:58:45;102420.00;;;11.73;65.79
46690;BME280;32423;45.398;10.874;2022-11-12T01:01:48;102416.56;;;11.96;65.71
46690;BME280;32423;45.398;10.874;2022-11-12T01:04:52;102416.63;;;11.86;69.44
46690;BME280;32423;45.398;10.874;2022-11-12T01:07:55;102432.00;;;11.62;66.11
46690;BME280;32423;45.398;10.874;2022-11-12T01:11:07;102426.16;;;11.25;66.00
46690;BME280;32423;45.398;10.874;2022-11-12T01:14:11;102414.66;;;11.38;69.75
46690;BME280;32423;45.398;10.874;2022-11-12T01:17:14;102419.84;;;11.34;67.52
46690;BME280;32423;45.398;10.874;2022-11-12T01:20:18;102416.09;;;11.20;66.56
46690;BME280;32423;45.398;10.874;2022-11-12T01:23:22;102427.78;;;11.31;68.55
46690;BME280;32423;45.398;10.874;2022-11-12T01:26:26;102421.28;;;11.22;67.80
46690;BME280;32423;45.398;10.874;2022-11-12T01:29:33;102425.13;;;11.05;66.66
46690;BME280;32423;45.398;10.874;2022-11-12T01:32:36;102422.59;;;11.24;70.58
46690;BME280;32423;45.398;10.874;2022-11-12T01:35:40;102420.81;;;10.79;67.03
46690;BME280;32423;45.398;10.874;2022-11-12T01:38:45;102411.03;;;10.68;66.70
46690;BME280;32423;45.398;10.874;2022-11-12T01:41:48;102417.03;;;10.75;66.81
46690;BME280;32423;45.398;10.874;2022-11-12T01:44:52;102415.63;;;10.88;66.08
46690;BME280;32423;45.398;10.874;2022-11-12T01:47:56;102415.09;;;10.91;66.08
46690;BME280;32423;45.398;10.874;2022-11-12T01:51:01;102411.53;;;10.95;66.03
46690;BME280;32423;45.398;10.874;2022-11-12T01:54:08;102397.34;;;11.03;68.37
46690;BME280;32423;45.398;10.874;2022-11-12T01:57:13;102394.41;;;10.85;66.86
46690;BME280;32423;45.398;10.874;2022-11-12T02:00:17;102386.56;;;10.68;66.79
46690;BME280;32423;45.398;10.874;2022-11-12T02:03:23;102381.41;;;10.66;66.22
46690;BME280;32423;45.398;10.874;2022-11-12T02:06:26;102382.91;;;11.08;66.30
46690;BME280;32423;45.398;10.874;2022-11-12T02:09:31;102381.72;;;11.34;66.23
46690;BME280;32423;45.398;10.874;2022-11-12T02:12:35;102380.69;;;11.20;72.20
46690;BME280;32423;45.398;10.874;2022-11-12T02:15:58;102378.31;;;10.98;66.05
46690;BME280;32423;45.398;10.874;2022-11-12T02:19:04;102373.63;;;11.19;64.50
46690;BME280;32423;45.398;10.874;2022-11-12T02:22:08;102372.84;;;11.03;65.73
46690;BME280;32423;45.398;10.874;2022-11-12T02:25:16;102375.53;;;11.13;70.44
46690;BME280;32423;45.398;10.874;2022-11-12T02:28:20;102367.66;;;11.12;64.50
46690;BME280;32423;45.398;10.874;2022-11-12T02:31:24;102369.31;;;10.98;64.17
46690;BME280;32423;45.398;10.874;2022-11-12T02:34:28;102358.78;;;10.86;63.79
46690;BME280;32423;45.398;10.874;2022-11-12T02:37:31;102344.28;;;11.01;65.15
46690;BME280;32423;45.398;10.874;2022-11-12T02:40:34;102349.94;;;11.14;66.61
46690;BME280;32423;45.398;10.874;2022-11-12T02:43:38;102352.72;;;11.04;66.86
46690;BME280;32423;45.398;10.874;2022-11-12T02:46:42;102344.59;;;10.94;66.47
46690;BME280;32423;45.398;10.874;2022-11-12T02:49:45;102344.03;;;10.92;65.51
46690;BME280;32423;45.398;10.874;2022-11-12T02:52:49;102333.44;;;10.91;66.05
46690;BME280;32423;45.398;10.874;2022-11-12T02:55:52;102336.41;;;10.99;66.64
46690;BME280;32423;45.398;10.874;2022-11-12T02:58:55;102339.16;;;10.84;66.05
46690;BME280;32423;45.398;10.874;2022-11-12T03:01:59;102338.53;;;11.07;66.66
46690;BME280;32423;45.398;10.874;2022-11-12T03:05:02;102344.59;;;10.94;65.94
46690;BME280;32423;45.398;10.874;2022-11-12T03:08:07;102345.97;;;10.92;65.95
46690;BME280;32423;45.398;10.874;2022-11-12T03:11:13;102344.06;;;10.77;66.32
46690;BME280;32423;45.398;10.874;2022-11-12T03:14:17;102341.34;;;10.82;67.23
46690;BME280;32423;45.398;10.874;2022-11-12T03:17:21;102344.53;;;11.04;66.09
46690;BME280;32423;45.398;10.874;2022-11-12T03:20:25;102343.94;;;11.18;65.96
46690;BME280;32423;45.398;10.874;2022-11-12T03:23:30;102332.81;;;11.09;65.70
46690;BME280;32423;45.398;10.874;2022-11-12T03:26:36;102333.63;;;11.09;65.12
46690;BME280;32423;45.398;10.874;2022-11-12T03:29:41;102337.88;;;10.66;66.60
46690;BME280;32423;45.398;10.874;2022-11-12T03:32:44;102328.44;;;11.13;66.03
46690;BME280;32423;45.398;10.874;2022-11-12T03:35:47;102329.88;;;10.95;66.27
46690;BME280;32423;45.398;10.874;2022-11-12T03:38:51;102335.47;;;11.24;66.12
46690;BME280;32423;45.398;10.874;2022-11-12T03:41:54;102323.72;;;11.34;65.04
46690;BME280;32423;45.398;10.874;2022-11-12T03:44:57;102326.16;;;11.35;64.65
46690;BME280;32423;45.398;10.874;2022-11-12T03:48:01;102320.50;;;11.27;64.86
46690;BME280;32423;45.398;10.874;2022-11-12T03:51:05;102327.38;;;11.09;63.27
46690;BME280;32423;45.398;10.874;2022-11-12T03:54:09;102334.84;;;10.78;64.59
46690;BME280;32423;45.398;10.874;2022-11-12T03:57:12;102332.03;;;11.03;64.44
46690;BME280;32423;45.398;10.874;2022-11-12T04:00:16;102330.47;;;10.82;65.32
46690;BME280;32423;45.398;10.874;2022-11-12T04:03:21;102324.47;;;10.85;65.50
46690;BME280;32423;45.398;10.874;2022-11-12T04:06:24;102322.84;;;10.84;67.49
46690;BME280;32423;45.398;10.874;2022-11-12T04:09:46;102322.31;;;10.77;67.46
46690;BME280;32423;45.398;10.874;2022-11-12T04:12:50;102321.25;;;10.68;66.08
46690;BME280;32423;45.398;10.874;2022-11-12T04:16:18;102318.28;;;10.69;66.06
46690;BME280;32423;45.398;10.874;2022-11-12T04:19:40;102315.81;;;10.68;65.97
46690;BME280;32423;45.398;10.874;2022-11-12T04:23:03;102321.31;;;10.43;67.29
46690;BME280;32423;45.398;10.874;2022-11-12T04:26:06;102315.84;;;10.58;66.59
46690;BME280;32423;45.398;10.874;2022-11-12T04:29:27;102311.34;;;11.02;64.29
46690;BME280;32423;45.398;10.874;2022-11-12T04:32:54;102302.31;;;11.12;64.62
46690;BME280;32423;45.398;10.874;2022-11-12T04:35:59;102290.16;;;10.89;64.83
46690;BME280;32423;45.398;10.874;2022-11-12T04:39:02;102282.53;;;10.96;64.68
46690;BME280;32423;45.398;10.874;2022-11-12T04:42:07;102277.09;;;10.96;64.16
46690;BME280;32423;45.398;10.874;2022-11-12T04:45:30;102280.41;;;10.78;64.46
46690;BME280;32423;45.398;10.874;2022-11-12T04:48:33;102282.63;;;10.76;65.27
46690;BME280;32423;45.398;10.874;2022-11-12T04:51:37;102279.94;;;10.61;65.27
46690;BME280;32423;45.398;10.874;2022-11-12T04:54:59;102285.97;;;10.38;67.20
46690;BME280;32423;45.398;10.874;2022-11-12T04:58:03;102275.59;;;10.60;67.05
46690;BME280;32423;45.398;10.874;2022-11-12T05:01:07;102276.09;;;10.67;66.93
46690;BME280;32423;45.398;10.874;2022-11-12T05:04:10;102271.19;;;10.74;68.43
46690;BME280;32423;45.398;10.874;2022-11-12T05:07:14;102270.63;;;10.72;66.42
46690;BME280;32423;45.398;10.874;2022-11-12T05:10:18;102267.75;;;10.38;67.40
46690;BME280;32423;45.398;10.874;2022-11-12T05:13:22;102269.41;;;10.39;70.09
46690;BME280;32423;45.398;10.874;2022-11-12T05:16:25;102272.38;;;10.33;69.90
46690;BME280;32423;45.398;10.874;2022-11-12T05:19:29;102276.75;;;10.28;68.72
46690;BME280;32423;45.398;10.874;2022-11-12T05:22:32;102271.34;;;10.18;68.36
46690;BME280;32423;45.398;10.874;2022-11-12T05:25:36;102269.91;;;10.56;75.03
46690;BME280;32423;45.398;10.874;2022-11-12T05:28:40;102256.88;;;10.43;68.60
46690;BME280;32423;45.398;10.874;2022-11-12T05:31:43;102250.34;;;10.39;68.05
46690;BME280;32423;45.398;10.874;2022-11-12T05:34:47;102258.75;;;10.53;67.05
46690;BME280;32423;45.398;10.874;2022-11-12T05:37:50;102254.91;;;10.59;67.39
46690;BME280;32423;45.398;10.874;2022-11-12T05:40:53;102250.81;;;10.71;66.85
46690;BME280;32423;45.398;10.874;2022-11-12T05:43:57;102255.75;;;10.49;67.24
46690;BME280;32423;45.398;10.874;2022-11-12T05:47:00;102248.16;;;10.51;67.45
46690;BME280;32423;45.398;10.874;2022-11-12T05:50:04;102251.56;;;10.77;68.28
46690;BME280;32423;45.398;10.874;2022-11-12T05:53:07;102261.28;;;10.93;68.46
46690;BME280;32423;45.398;10.874;2022-11-12T05:56:11;102252.00;;;11.04;67.94
46690;BME280;32423;45.398;10.874;2022-11-12T05:59:14;102257.50;;;10.94;67.17
46690;BME280;32423;45.398;10.874;2022-11-12T06:02:18;102249.09;;;10.86;67.35
46690;BME280;32423;45.398;10.874;2022-11-12T06:05:21;102239.38;;;10.69;70.01
46690;BME280;32423;45.398;10.874;2022-11-12T06:08:24;102244.06;;;10.54;70.40
46690;BME280;32423;45.398;10.874;2022-11-12T06:11:28;102239.47;;;10.44;72.36
46690;BME280;32423;45.398;10.874;2022-11-12T06:14:31;102250.13;;;10.31;69.86
46690;BME280;32423;45.398;10.874;2022-11-12T06:17:35;102244.38;;;10.32;73.87
46690;BME280;32423;45.398;10.874;2022-11-12T06:20:38;102242.75;;;10.41;70.11
46690;BME280;32423;45.398;10.874;2022-11-12T06:23:42;102247.09;;;10.27;68.62
46690;BME280;32423;45.398;10.874;2022-11-12T06:26:45;102243.59;;;10.21;68.78
46690;BME280;32423;45.398;10.874;2022-11-12T06:29:48;102245.72;;;10.40;69.04
46690;BME280;32423;45.398;10.874;2022-11-12T06:32:52;102242.22;;;10.29;69.04
46690;BME280;32423;45.398;10.874;2022-11-12T06:35:57;102245.69;;;10.50;68.96
46690;BME280;32423;45.398;10.874;2022-11-12T06:39:00;102245.13;;;10.53;68.39
46690;BME280;32423;45.398;10.874;2022-11-12T06:42:03;102237.06;;;10.27;67.93
46690;BME280;32423;45.398;10.874;2022-11-12T06:45:07;102238.66;;;10.39;67.75
46690;BME280;32423;45.398;10.874;2022-11-12T06:48:11;102237.84;;;10.33;70.20
46690;BME280;32423;45.398;10.874;2022-11-12T06:51:17;102244.06;;;10.49;70.53
46690;BME280;32423;45.398;10.874;2022-11-12T06:54:21;102238.94;;;10.37;70.27
46690;BME280;32423;45.398;10.874;2022-11-12T06:57:25;102229.47;;;10.24;71.10
46690;BME280;32423;45.398;10.874;2022-11-12T07:00:28;102235.72;;;10.30;70.74
46690;BME280;32423;45.398;10.874;2022-11-12T07:03:32;102240.50;;;10.58;69.00
46690;BME280;32423;45.398;10.874;2022-11-12T07:06:35;102243.09;;;10.89;67.83
46690;BME280;32423;45.398;10.874;2022-11-12T07:09:39;102234.34;;;10.97;67.96
46690;BME280;32423;45.398;10.874;2022-11-12T07:12:42;102233.00;;;10.94;67.62
46690;BME280;32423;45.398;10.874;2022-11-12T07:15:46;102240.38;;;10.84;68.13
46690;BME280;32423;45.398;10.874;2022-11-12T07:18:49;102227.66;;;10.69;68.79
46690;BME280;32423;45.398;10.874;2022-11-12T07:21:53;102231.72;;;10.82;68.91
46690;BME280;32423;45.398;10.874;2022-11-12T07:24:56;102229.59;;;10.63;69.73
46690;BME280;32423;45.398;10.874;2022-11-12T07:27:59;102236.09;;;10.67;70.80
46690;BME280;32423;45.398;10.874;2022-11-12T07:31:05;102242.63;;;10.71;72.19
46690;BME280;32423;45.398;10.874;2022-11-12T07:34:09;102242.63;;;10.71;73.72
46690;BME280;32423;45.398;10.874;2022-11-12T07:37:12;102233.69;;;10.66;73.66
46690;BME280;32423;45.398;10.874;2022-11-12T07:40:16;102241.53;;;10.67;73.31
46690;BME280;32423;45.398;10.874;2022-11-12T07:43:19;102223.84;;;10.75;72.52
46690;BME280;32423;45.398;10.874;2022-11-12T07:46:25;102226.53;;;10.80;71.84
46690;BME280;32423;45.398;10.874;2022-11-12T07:49:28;102233.03;;;10.89;71.56
46690;BME280;32423;45.398;10.874;2022-11-12T07:52:32;102230.25;;;10.99;71.87
46690;BME280;32423;45.398;10.874;2022-11-12T07:55:36;102230.22;;;11.04;70.92
46690;BME280;32423;45.398;10.874;2022-11-12T07:58:39;102229.38;;;11.09;70.29
46690;BME280;32423;45.398;10.874;2022-11-12T08:01:43;102233.41;;;11.17;70.18
46690;BME280;32423;45.398;10.874;2022-11-12T08:04:47;102239.34;;;11.24;70.75
46690;BME280;32423;45.398;10.874;2022-11-12T08:07:50;102239.44;;;11.08;71.26
46690;BME280;32423;45.398;10.874;2022-11-12T08:10:57;102255.22;;;11.11;71.05
46690;BME280;32423;45.398;10.874;2022-11-12T08:14:01;102255.78;;;11.08;71.93
46690;BME280;32423;45.398;10.874;2022-11-12T08:17:05;102259.84;;;11.11;72.34
46690;BME280;32423;45.398;10.874;2022-11-12T08:20:09;102255.69;;;11.24;71.75
46690;BME280;32423;45.398;10.874;2022-11-12T08:23:12;102251.06;;;11.24;72.20
46690;BME280;32423;45.398;10.874;2022-11-12T08:26:17;102245.13;;;11.17;72.79
46690;BME280;32423;45.398;10.874;2022-11-12T08:29:21;102232.84;;;11.20;72.85
46690;BME280;32423;45.398;10.874;2022-11-12T08:32:25;102220.63;;;11.17;73.19
46690;BME280;32423;45.398;10.874;2022-11-12T08:35:31;102220.88;;;11.21;73.60
46690;BME280;32423;45.398;10.874;2022-11-12T08:38:34;102227.88;;;11.32;73.11
46690;BME280;32423;45.398;10.874;2022-11-12T08:41:38;102234.88;;;11.38;73.32
46690;BME280;32423;45.398;10.874;2022-11-12T08:44:41;102232.13;;;11.43;72.95
46690;BME280;32423;45.398;10.874;2022-11-12T08:47:45;102218.22;;;11.44;73.06
46690;BME280;32423;45.398;10.874;2022-11-12T08:50:50;102233.75;;;11.44;73.51
46690;BME280;32423;45.398;10.874;2022-11-12T08:53:53;102234.78;;;11.53;73.03
46690;BME280;32423;45.398;10.874;2022-11-12T08:56:57;102235.81;;;11.62;72.84
46690;BME280;32423;45.398;10.874;2022-11-12T09:00:00;102237.16;;;11.65;72.84
46690;BME280;32423;45.398;10.874;2022-11-12T09:03:06;102221.97;;;11.53;73.89
46690;BME280;32423;45.398;10.874;2022-11-12T09:06:10;102223.31;;;11.56;74.49
46690;BME280;32423;45.398;10.874;2022-11-12T09:09:13;102230.38;;;11.62;73.82
46690;BME280;32423;45.398;10.874;2022-11-12T09:12:17;102236.34;;;11.64;74.00
46690;BME280;32423;45.398;10.874;2022-11-12T09:15:23;102231.66;;;11.70;74.45
46690;BME280;32423;45.398;10.874;2022-11-12T09:18:27;102226.19;;;11.70;75.14
46690;BME280;32423;45.398;10.874;2022-11-12T09:21:30;102224.00;;;11.77;75.27
46690;BME280;32423;45.398;10.874;2022-11-12T09:24:33;102226.41;;;11.83;74.99
46690;BME280;32423;45.398;10.874;2022-11-12T09:27:37;102228.56;;;11.86;74.51
46690;BME280;32423;45.398;10.874;2022-11-12T09:30:46;102224.69;;;11.92;75.18
46690;BME280;32423;45.398;10.874;2022-11-12T09:33:50;102239.03;;;12.03;76.11
46690;BME280;32423;45.398;10.874;2022-11-12T09:36:54;102223.72;;;12.07;74.83
46690;BME280;32423;45.398;10.874;2022-11-12T09:39:57;102226.94;;;12.09;74.68
46690;BME280;32423;45.398;10.874;2022-11-12T09:43:09;102214.91;;;12.15;74.44
46690;BME280;32423;45.398;10.874;2022-11-12T09:46:34;102217.28;;;12.22;74.10
46690;BME280;32423;45.398;10.874;2022-11-12T09:49:44;102211.84;;;12.22;74.43
46690;BME280;32423;45.398;10.874;2022-11-12T09:53:00;102203.59;;;12.27;74.44
46690;BME280;32423;45.398;10.874;2022-11-12T09:56:09;102217.19;;;12.32;74.46
46690;BME280;32423;45.398;10.874;2022-11-12T09:59:15;102212.72;;;12.83;73.65
46690;BME280;32423;45.398;10.874;2022-11-12T10:05:54;102208.66;;;13.56;69.45
46690;BME280;32423;45.398;10.874;2022-11-12T10:09:08;102199.50;;;13.47;71.25
46690;BME280;32423;45.398;10.874;2022-11-12T10:12:30;102187.50;;;13.61;70.26
46690;BME280;32423;45.398;10.874;2022-11-12T10:19:34;102169.88;;;14.13;68.99
46690;BME280;32423;45.398;10.874;2022-11-12T10:26:10;102155.91;;;14.01;70.76
46690;BME280;32423;45.398;10.874;2022-11-12T10:29:42;102144.97;;;14.01;71.03
46690;BME280;32423;45.398;10.874;2022-11-12T10:32:51;102129.44;;;14.38;70.08
46690;BME280;32423;45.398;10.874;2022-11-12T10:35:57;102132.91;;;14.43;68.92
46690;BME280;32423;45.398;10.874;2022-11-12T10:39:33;102140.63;;;15.13;65.28
46690;BME280;32423;45.398;10.874;2022-11-12T10:43:02;102139.44;;;15.28;65.08
46690;BME280;32423;45.398;10.874;2022-11-12T10:46:18;102149.09;;;15.48;66.02
46690;BME280;32423;45.398;10.874;2022-11-12T10:49:24;102155.16;;;15.89;67.80
46690;BME280;32423;45.398;10.874;2022-11-12T10:52:27;102148.50;;;15.81;64.90
46690;BME280;32423;45.398;10.874;2022-11-12T10:55:36;102144.75;;;15.77;63.80
46690;BME280;32423;45.398;10.874;2022-11-12T10:58:40;102138.63;;;15.27;66.30
46690;BME280;32423;45.398;10.874;2022-11-12T11:01:45;102128.16;;;15.07;67.87
46690;BME280;32423;45.398;10.874;2022-11-12T11:04:49;102134.41;;;15.21;67.16
46690;BME280;32423;45.398;10.874;2022-11-12T11:07:52;102135.13;;;15.35;68.04
46690;BME280;32423;45.398;10.874;2022-11-12T11:11:13;102132.19;;;15.10;66.32
46690;BME280;32423;45.398;10.874;2022-11-12T11:17:26;102115.16;;;14.41;70.86
46690;BME280;32423;45.398;10.874;2022-11-12T11:20:48;102105.34;;;14.76;69.64
46690;BME280;32423;45.398;10.874;2022-11-12T11:41:43;102074.06;;;14.54;70.58
46690;BME280;32423;45.398;10.874;2022-11-12T11:45:16;102073.47;;;14.80;68.72
46690;BME280;32423;45.398;10.874;2022-11-12T11:55:35;102061.44;;;15.03;69.03
46690;BME280;32423;45.398;10.874;2022-11-12T12:09:24;102040.28;;;15.26;69.82
46690;BME280;32423;45.398;10.874;2022-11-12T12:15:59;102046.72;;;15.52;69.69
46690;BME280;32423;45.398;10.874;2022-11-12T12:22:39;102038.75;;;16.64;69.20
46690;BME280;32423;45.398;10.874;2022-11-12T12:25:45;102036.88;;;17.28;70.53
46690;BME280;32423;45.398;10.874;2022-11-12T12:32:24;102028.53;;;16.47;66.88
46690;BME280;32423;45.398;10.874;2022-11-12T12:35:33;102031.47;;;16.77;67.10
46690;BME280;32423;45.398;10.874;2022-11-12T12:42:13;102031.56;;;16.11;66.33
46690;BME280;32423;45.398;10.874;2022-11-12T12:45:42;102018.31;;;15.96;67.12
46690;BME280;32423;45.398;10.874;2022-11-12T12:48:46;102018.31;;;15.88;67.27
46690;BME280;32423;45.398;10.874;2022-11-12T12:51:50;102015.69;;;15.74;67.80
46690;BME280;32423;45.398;10.874;2022-11-12T12:54:55;102022.00;;;15.83;67.40
46690;BME280;32423;45.398;10.874;2022-11-12T12:57:58;102021.31;;;15.69;68.24
46690;BME280;32423;45.398;10.874;2022-11-12T13:01:03;102025.66;;;15.70;68.59
46690;BME280;32423;45.398;10.874;2022-11-12T13:04:07;102023.91;;;15.74;68.06
46690;BME280;32423;45.398;10.874;2022-11-12T13:07:11;102011.31;;;15.73;67.50
46690;BME280;32423;45.398;10.874;2022-11-12T13:10:45;102010.81;;;15.71;68.23
46690;BME280;32423;45.398;10.874;2022-11-12T13:13:49;102015.63;;;15.57;69.15
46690;BME280;32423;45.398;10.874;2022-11-12T13:23:01;102015.06;;;15.46;70.89
46690;BME280;32423;45.398;10.874;2022-11-12T13:26:43;102015.69;;;15.74;70.08
46690;BME280;32423;45.398;10.874;2022-11-12T13:29:47;102013.63;;;15.97;69.22
46690;BME280;32423;45.398;10.874;2022-11-12T13:36:15;102010.38;;;15.86;69.44
46690;BME280;32423;45.398;10.874;2022-11-12T13:39:25;102006.09;;;15.54;70.19
46690;BME280;32423;45.398;10.874;2022-11-12T13:42:28;102015.44;;;15.22;70.98
46690;BME280;32423;45.398;10.874;2022-11-12T13:49:14;102005.81;;;15.03;72.42
46690;BME280;32423;45.398;10.874;2022-11-12T13:52:19;102005.19;;;14.83;72.28
46690;BME280;32423;45.398;10.874;2022-11-12T13:55:23;102015.16;;;14.79;72.78
46690;BME280;32423;45.398;10.874;2022-11-12T13:58:29;102006.84;;;14.62;73.48
46690;BME280;32423;45.398;10.874;2022-11-12T14:01:32;101994.09;;;14.58;73.75
46690;BME280;32423;45.398;10.874;2022-11-12T14:04:36;101989.59;;;14.62;73.57
46690;BME280;32423;45.398;10.874;2022-11-12T14:11:20;101993.69;;;14.50;74.05
46690;BME280;32423;45.398;10.874;2022-11-12T14:15:08;102004.78;;;14.45;74.33
46690;BME280;32423;45.398;10.874;2022-11-12T14:21:28;101998.81;;;14.30;74.58
46690;BME280;32423;45.398;10.874;2022-11-12T14:24:32;101998.09;;;14.24;74.52
46690;BME280;32423;45.398;10.874;2022-11-12T14:27:35;101993.75;;;14.37;74.34
46690;BME280;32423;45.398;10.874;2022-11-12T14:30:43;101995.69;;;14.36;74.30
46690;BME280;32423;45.398;10.874;2022-11-12T14:33:46;101996.88;;;14.30;74.82
46690;BME280;32423;45.398;10.874;2022-11-12T14:36:50;101993.13;;;14.40;74.34
46690;BME280;32423;45.398;10.874;2022-11-12T14:39:58;101987.00;;;14.57;73.40
46690;BME280;32423;45.398;10.874;2022-11-12T14:43:01;101982.69;;;14.64;72.82
46690;BME280;32423;45.398;10.874;2022-11-12T14:46:06;101984.72;;;14.59;73.13
46690;BME280;32423;45.398;10.874;2022-11-12T14:52:43;101985.47;;;14.14;75.29
46690;BME280;32423;45.398;10.874;2022-11-12T14:55:52;101990.72;;;14.25;75.17
46690;BME280;32423;45.398;10.874;2022-11-12T14:58:55;101983.44;;;14.20;75.34
46690;BME280;32423;45.398;10.874;2022-11-12T15:02:23;101983.31;;;14.25;74.94
46690;BME280;32423;45.398;10.874;2022-11-12T15:05:30;101987.28;;;14.19;74.97
46690;BME280;32423;45.398;10.874;2022-11-12T15:08:36;101996.59;;;14.18;74.64
46690;BME280;32423;45.398;10.874;2022-11-12T15:11:47;101993.06;;;14.18;74.84
46690;BME280;32423;45.398;10.874;2022-11-12T15:14:52;101986.28;;;14.15;75.21
46690;BME280;32423;45.398;10.874;2022-11-12T15:18:02;101985.88;;;14.08;75.15
46690;BME280;32423;45.398;10.874;2022-11-12T15:24:17;101983.16;;;14.08;75.23
46690;BME280;32423;45.398;10.874;2022-11-12T15:30:34;101980.75;;;13.93;75.95
46690;BME280;32423;45.398;10.874;2022-11-12T15:33:38;101984.72;;;13.87;76.07
46690;BME280;32423;45.398;10.874;2022-11-12T15:36:41;101981.59;;;13.80;76.51
46690;BME280;32423;45.398;10.874;2022-11-12T15:39:47;101980.47;;;13.81;76.64
46690;BME280;32423;45.398;10.874;2022-11-12T15:42:52;101984.53;;;13.69;76.82
46690;BME280;32423;45.398;10.874;2022-11-12T15:45:56;101981.19;;;13.59;77.39
46690;BME280;32423;45.398;10.874;2022-11-12T15:49:00;101973.59;;;13.69;77.13
46690;BME280;32423;45.398;10.874;2022-11-12T15:52:03;101975.22;;;13.70;76.86
46690;BME280;32423;45.398;10.874;2022-11-12T15:55:08;101977.44;;;13.68;76.47
46690;BME280;32423;45.398;10.874;2022-11-12T15:58:21;101977.25;;;13.65;76.87
46690;BME280;32423;45.398;10.874;2022-11-12T16:01:29;101983.63;;;13.60;77.09
46690;BME280;32423;45.398;10.874;2022-11-12T16:04:32;101988.69;;;13.67;76.98
46690;BME280;32423;45.398;10.874;2022-11-12T16:07:35;101972.06;;;13.77;76.81
46690;BME280;32423;45.398;10.874;2022-11-12T16:10:40;101978.22;;;13.83;76.46
46690;BME280;32423;45.398;10.874;2022-11-12T16:13:45;101976.59;;;13.82;76.58
46690;BME280;32423;45.398;10.874;2022-11-12T16:16:48;101974.31;;;13.75;76.59
46690;BME280;32423;45.398;10.874;2022-11-12T16:19:52;101971.16;;;13.68;76.97
46690;BME280;32423;45.398;10.874;2022-11-12T16:22:56;101970.25;;;13.73;76.81
46690;BME280;32423;45.398;10.874;2022-11-12T16:26:01;101963.66;;;13.74;77.27
46690;BME280;32423;45.398;10.874;2022-11-12T16:29:11;101959.75;;;13.66;77.56
46690;BME280;32423;45.398;10.874;2022-11-12T16:32:15;101948.81;;;13.66;77.13
46690;BME280;32423;45.398;10.874;2022-11-12T16:35:21;101951.31;;;13.62;77.26
46690;BME280;32423;45.398;10.874;2022-11-12T16:38:25;101952.75;;;13.60;77.02
46690;BME280;32423;45.398;10.874;2022-11-12T16:41:28;101945.97;;;13.57;76.75
46690;BME280;32423;45.398;10.874;2022-11-12T16:44:32;101938.38;;;13.54;76.91
46690;BME280;32423;45.398;10.874;2022-11-12T16:47:42;101948.81;;;13.39;76.79
46690;BME280;32423;45.398;10.874;2022-11-12T16:50:46;101942.53;;;13.38;76.91
46690;BME280;32423;45.398;10.874;2022-11-12T16:53:50;101947.00;;;13.34;76.61
46690;BME280;32423;45.398;10.874;2022-11-12T16:56:54;101950.75;;;13.38;77.02
46690;BME280;32423;45.398;10.874;2022-11-12T16:59:57;101956.91;;;13.30;77.26
46690;BME280;32423;45.398;10.874;2022-11-12T17:03:01;101947.59;;;13.31;77.08
46690;BME280;32423;45.398;10.874;2022-11-12T17:06:05;101945.47;;;13.42;76.80
46690;BME280;32423;45.398;10.874;2022-11-12T17:09:10;101945.78;;;13.40;77.01
46690;BME280;32423;45.398;10.874;2022-11-12T17:12:14;101942.97;;;13.45;76.65
46690;BME280;32423;45.398;10.874;2022-11-12T17:15:18;101931.91;;;13.37;77.13
46690;BME280;32423;45.398;10.874;2022-11-12T17:18:21;101931.72;;;13.33;76.57
46690;BME280;32423;45.398;10.874;2022-11-12T17:21:24;101931.81;;;13.28;76.53
46690;BME280;32423;45.398;10.874;2022-11-12T17:24:28;101925.34;;;13.24;76.50
46690;BME280;32423;45.398;10.874;2022-11-12T17:27:31;101919.56;;;13.12;75.74
46690;BME280;32423;45.398;10.874;2022-11-12T17:30:35;101923.19;;;13.21;76.03
46690;BME280;32423;45.398;10.874;2022-11-12T17:33:41;101920.63;;;13.11;75.86